createdAt,value
2018-12-31T00:00:10.388Z,1.50
2018-12-31T00:02:57.904Z,1.33
2018-12-31T00:05:53.394Z,1.23
2018-12-31T00:08:43.646Z,1.40
2018-12-31T00:11:39.425Z,1.47
2018-12-31T00:14:26.390Z,1.40
2018-12-31T00:17:21.078Z,1.47
2018-12-31T00:20:08.657Z,1.17
2018-12-31T00:23:02.801Z,1.13
2018-12-31T00:25:50.268Z,1.20
2018-12-31T00:28:44.388Z,1.47
2018-12-31T00:31:31.493Z,1.53
2018-12-31T00:34:27.434Z,1.57
2018-12-31T00:37:14.728Z,1.47
2018-12-31T00:40:08.519Z,1.70
2018-12-31T00:43:02.486Z,1.60
2018-12-31T00:46:03.438Z,1.53
2018-12-31T00:48:57.293Z,1.60
2018-12-31T00:51:58.988Z,1.07
2018-12-31T00:54:46.240Z,1.30
2018-12-31T00:57:40.672Z,1.23
2018-12-31T01:00:27.850Z,1.40
2018-12-31T01:03:22.286Z,1.53
2018-12-31T01:06:12.683Z,1.50
2018-12-31T01:09:07.153Z,1.60
2018-12-31T01:11:54.598Z,1.10
2018-12-31T01:14:48.500Z,1.43
2018-12-31T01:17:35.658Z,1.00
2018-12-31T01:20:29.916Z,1.43
2018-12-31T01:23:17.354Z,1.40
2018-12-31T01:26:11.389Z,0.87
2018-12-31T01:28:58.653Z,1.50
2018-12-31T01:31:52.992Z,1.30
2018-12-31T01:34:41.412Z,1.37
2018-12-31T01:37:35.748Z,1.30
2018-12-31T01:40:23.160Z,1.30
2018-12-31T01:43:17.170Z,1.20
2018-12-31T01:46:10.724Z,1.03
2018-12-31T01:49:11.157Z,1.17
2018-12-31T01:52:04.904Z,1.30
2018-12-31T01:54:58.990Z,1.40
2018-12-31T01:57:46.406Z,1.00
2018-12-31T02:00:40.073Z,1.40
2018-12-31T02:03:27.402Z,1.27
2018-12-31T02:06:21.612Z,1.40
2018-12-31T02:09:08.800Z,1.30
2018-12-31T02:12:03.001Z,1.10
2018-12-31T02:14:50.065Z,1.30
2018-12-31T02:17:45.789Z,1.20
2018-12-31T02:20:34.847Z,1.40
2018-12-31T02:23:29.234Z,1.20
2018-12-31T02:26:16.443Z,1.30
2018-12-31T02:29:10.679Z,1.13
2018-12-31T02:31:57.768Z,1.23
2018-12-31T02:34:51.449Z,1.30
2018-12-31T02:37:41.292Z,1.17
2018-12-31T02:40:35.571Z,1.30
2018-12-31T02:43:22.701Z,1.47
2018-12-31T02:46:16.580Z,1.30
2018-12-31T02:49:10.388Z,1.00
2018-12-31T02:52:11.758Z,1.00
2018-12-31T02:55:05.235Z,1.30
2018-12-31T02:57:59.878Z,1.30
2018-12-31T03:00:47.218Z,1.20
2018-12-31T03:03:41.570Z,1.30
2018-12-31T03:06:29.000Z,1.27
2018-12-31T03:09:23.166Z,1.10
2018-12-31T03:12:13.592Z,1.33
2018-12-31T03:15:09.433Z,1.30
2018-12-31T03:17:57.065Z,1.40
2018-12-31T03:20:51.632Z,1.20
2018-12-31T03:23:39.031Z,1.20
2018-12-31T03:26:33.003Z,1.50
2018-12-31T03:29:22.102Z,1.20
2018-12-31T03:32:23.298Z,1.20
2018-12-31T03:35:10.860Z,1.23
2018-12-31T03:38:05.207Z,1.40
2018-12-31T03:40:52.817Z,1.00
2018-12-31T03:43:46.564Z,1.33
2018-12-31T03:46:33.649Z,1.03
2018-12-31T03:49:34.555Z,1.10
2018-12-31T03:52:22.145Z,1.47
2018-12-31T03:55:18.115Z,1.10
2018-12-31T03:58:12.392Z,1.20
2018-12-31T04:01:06.437Z,1.00
2018-12-31T04:03:53.676Z,1.13
2018-12-31T04:06:47.678Z,1.00
2018-12-31T04:09:35.144Z,0.97
2018-12-31T04:12:32.965Z,1.30
2018-12-31T04:15:20.188Z,1.23
2018-12-31T04:18:16.161Z,0.93
2018-12-31T04:21:05.229Z,0.90
2018-12-31T04:23:59.497Z,1.10
2018-12-31T04:26:49.043Z,1.27
2018-12-31T04:29:43.458Z,1.20
2018-12-31T04:32:30.658Z,1.07
2018-12-31T04:35:25.137Z,1.20
2018-12-31T04:38:12.559Z,1.10
2018-12-31T04:41:06.873Z,1.17
2018-12-31T04:43:54.458Z,1.50
2018-12-31T04:46:48.862Z,1.17
2018-12-31T04:49:42.991Z,0.97
2018-12-31T04:52:44.221Z,1.07
2018-12-31T04:55:31.647Z,1.23
2018-12-31T04:58:32.701Z,1.10
2018-12-31T05:01:19.997Z,1.50
2018-12-31T05:04:17.351Z,1.30
2018-12-31T05:07:04.707Z,1.17
2018-12-31T05:10:00.413Z,1.20
2018-12-31T05:12:47.473Z,1.00
2018-12-31T05:15:41.936Z,1.10
2018-12-31T05:18:29.153Z,0.77
2018-12-31T05:21:23.247Z,1.13
2018-12-31T05:24:13.371Z,1.10
2018-12-31T05:27:07.917Z,0.87
2018-12-31T05:29:58.333Z,1.20
2018-12-31T05:32:53.744Z,1.00
2018-12-31T05:35:41.149Z,1.27
2018-12-31T05:38:36.858Z,1.20
2018-12-31T05:41:24.270Z,1.10
2018-12-31T05:44:18.848Z,1.20
2018-12-31T05:47:07.832Z,1.20
2018-12-31T05:50:07.890Z,1.17
2018-12-31T05:53:02.061Z,0.90
2018-12-31T05:55:56.942Z,1.17
2018-12-31T05:58:51.404Z,1.20
2018-12-31T06:01:45.005Z,1.10
2018-12-31T06:04:32.330Z,1.23
2018-12-31T06:07:26.976Z,1.40
2018-12-31T06:10:15.712Z,1.20
2018-12-31T06:13:09.936Z,1.13
2018-12-31T06:15:57.064Z,1.13
2018-12-31T06:18:51.510Z,0.70
2018-12-31T06:21:38.924Z,0.83
2018-12-31T06:24:35.855Z,1.03
2018-12-31T06:27:22.893Z,0.60
2018-12-31T06:30:17.546Z,1.00
2018-12-31T06:33:04.964Z,0.80
2018-12-31T06:35:59.312Z,0.87
2018-12-31T06:38:46.424Z,0.80
2018-12-31T06:41:42.080Z,0.80
2018-12-31T06:44:29.566Z,1.10
2018-12-31T06:47:23.608Z,0.60
2018-12-31T06:50:17.404Z,0.90
2018-12-31T06:53:18.988Z,0.50
2018-12-31T06:56:06.134Z,0.63
2018-12-31T06:58:59.867Z,0.70
2018-12-31T07:01:54.412Z,0.50
2018-12-31T07:04:49.331Z,0.73
2018-12-31T07:07:37.744Z,0.70
2018-12-31T07:10:32.185Z,0.70
2018-12-31T07:13:20.250Z,1.17
2018-12-31T07:16:14.578Z,0.70
2018-12-31T07:19:01.890Z,0.50
2018-12-31T07:21:56.260Z,0.50
2018-12-31T07:24:43.366Z,0.60
2018-12-31T07:27:38.086Z,0.60
2018-12-31T07:30:25.336Z,0.63
2018-12-31T07:33:20.007Z,0.57
2018-12-31T07:36:07.342Z,0.57
2018-12-31T07:39:03.600Z,0.50
2018-12-31T07:41:52.548Z,0.53
2018-12-31T07:44:46.632Z,0.50
2018-12-31T07:47:34.176Z,0.73
2018-12-31T07:50:29.062Z,0.50
2018-12-31T07:53:22.876Z,0.57
2018-12-31T07:56:17.320Z,0.50
2018-12-31T07:59:04.422Z,0.53
2018-12-31T08:01:58.459Z,0.57
2018-12-31T08:04:52.189Z,0.50
2018-12-31T08:07:47.006Z,0.50
2018-12-31T08:10:34.510Z,0.60
2018-12-31T08:13:28.435Z,0.60
2018-12-31T08:16:15.926Z,0.60
2018-12-31T08:19:09.740Z,0.40
2018-12-31T08:21:57.020Z,0.50
2018-12-31T08:24:50.943Z,0.50
2018-12-31T08:27:38.084Z,0.30
2018-12-31T08:30:32.469Z,0.73
2018-12-31T08:33:20.123Z,0.50
2018-12-31T08:36:14.021Z,0.40
2018-12-31T08:39:01.303Z,0.70
2018-12-31T08:41:55.414Z,0.50
2018-12-31T08:44:42.723Z,0.50
2018-12-31T08:47:37.031Z,0.40
2018-12-31T08:50:24.468Z,0.50
2018-12-31T08:53:24.649Z,0.50
2018-12-31T08:56:11.819Z,0.40
2018-12-31T08:59:05.226Z,0.50
2018-12-31T09:01:52.398Z,0.47
2018-12-31T09:04:46.905Z,0.60
2018-12-31T09:07:40.357Z,0.33
2018-12-31T09:10:34.943Z,0.50
2018-12-31T09:13:23.896Z,0.53
2018-12-31T09:16:18.389Z,0.40
2018-12-31T09:19:05.701Z,0.60
2018-12-31T09:22:00.348Z,0.27
2018-12-31T09:24:50.475Z,0.40
2018-12-31T09:27:44.357Z,0.60
2018-12-31T09:30:31.771Z,0.30
2018-12-31T09:33:26.100Z,0.30
2018-12-31T09:36:13.187Z,0.50
2018-12-31T09:39:08.637Z,0.50
2018-12-31T09:41:55.841Z,0.67
2018-12-31T09:44:50.335Z,0.40
2018-12-31T09:47:37.706Z,0.60
2018-12-31T09:50:32.252Z,0.40
2018-12-31T09:53:25.882Z,0.50
2018-12-31T09:56:26.929Z,0.30
2018-12-31T09:59:14.388Z,0.60
2018-12-31T10:02:08.685Z,0.40
2018-12-31T10:04:55.995Z,0.33
2018-12-31T10:07:49.589Z,0.50
2018-12-31T10:10:43.407Z,0.73
2018-12-31T10:13:37.473Z,0.77
2018-12-31T10:16:24.961Z,0.50
2018-12-31T10:19:19.205Z,0.40
2018-12-31T10:22:06.017Z,0.40
2018-12-31T10:24:59.954Z,0.60
2018-12-31T10:27:47.100Z,0.33
2018-12-31T10:30:41.829Z,0.87
2018-12-31T10:33:28.981Z,0.60
2018-12-31T10:36:23.852Z,0.70
2018-12-31T10:39:14.173Z,0.50
2018-12-31T10:42:08.541Z,0.60
2018-12-31T10:44:55.673Z,0.60
2018-12-31T10:47:53.163Z,0.60
2018-12-31T10:50:40.307Z,0.60
2018-12-31T10:53:41.008Z,0.37
2018-12-31T10:56:34.720Z,0.73
2018-12-31T10:59:29.289Z,0.50
2018-12-31T11:02:16.957Z,0.80
2018-12-31T11:05:11.355Z,0.60
2018-12-31T11:08:01.593Z,1.00
2018-12-31T11:10:55.716Z,0.87
2018-12-31T11:13:50.161Z,0.90
2018-12-31T11:16:43.962Z,1.10
2018-12-31T11:19:31.161Z,0.83
2018-12-31T11:22:25.377Z,1.00
2018-12-31T11:25:12.555Z,1.10
2018-12-31T11:28:06.870Z,0.83
2018-12-31T11:30:54.438Z,0.80
2018-12-31T11:33:48.813Z,1.13
2018-12-31T11:36:36.299Z,0.80
2018-12-31T11:39:30.147Z,1.00
2018-12-31T11:42:17.541Z,1.17
2018-12-31T11:45:12.033Z,1.10
2018-12-31T11:47:59.115Z,1.00
2018-12-31T11:50:53.015Z,1.37
2018-12-31T11:53:47.091Z,1.30
2018-12-31T11:56:47.908Z,1.47
2018-12-31T11:59:41.774Z,1.20
2018-12-31T12:02:35.094Z,1.33
2018-12-31T12:05:22.299Z,1.10
2018-12-31T12:08:17.058Z,1.10
2018-12-31T12:11:04.483Z,0.80
2018-12-31T12:13:58.985Z,1.10
2018-12-31T12:16:57.215Z,0.80
2018-12-31T12:19:51.856Z,1.00
2018-12-31T12:22:39.001Z,0.80
2018-12-31T12:25:33.000Z,0.90
2018-12-31T12:28:20.376Z,0.90
2018-12-31T12:31:14.536Z,0.87
2018-12-31T12:34:04.020Z,0.93
2018-12-31T12:36:59.028Z,0.97
2018-12-31T12:39:46.660Z,1.00
2018-12-31T12:42:41.597Z,0.80
2018-12-31T12:45:28.934Z,0.80
2018-12-31T12:48:23.577Z,0.80
2018-12-31T12:51:10.696Z,0.90
2018-12-31T12:54:04.704Z,0.80
2018-12-31T12:56:58.648Z,0.87
2018-12-31T13:00:00.081Z,0.90
2018-12-31T13:02:47.527Z,0.77
2018-12-31T13:05:41.383Z,0.90
2018-12-31T13:08:28.820Z,0.90
2018-12-31T13:11:23.136Z,0.80
2018-12-31T13:14:12.174Z,0.93
2018-12-31T13:17:06.196Z,0.90
2018-12-31T13:20:00.601Z,0.90
2018-12-31T13:22:55.692Z,0.80
2018-12-31T13:25:42.541Z,0.80
2018-12-31T13:28:36.557Z,1.00
2018-12-31T13:31:23.719Z,0.83
2018-12-31T13:34:17.608Z,1.20
2018-12-31T13:37:05.102Z,0.90
2018-12-31T13:39:59.212Z,0.90
2018-12-31T13:42:49.625Z,1.03
2018-12-31T13:45:44.157Z,1.20
2018-12-31T13:48:31.665Z,0.90
2018-12-31T13:51:25.656Z,1.13
2018-12-31T13:54:13.511Z,1.20
2018-12-31T13:57:07.748Z,1.03
2018-12-31T14:00:01.590Z,0.97
2018-12-31T14:02:55.530Z,1.10
2018-12-31T14:05:42.942Z,1.00
2018-12-31T14:08:36.947Z,1.00
2018-12-31T14:11:24.110Z,1.03
2018-12-31T14:14:25.426Z,1.17
2018-12-31T14:17:12.879Z,1.10
2018-12-31T14:20:06.756Z,1.10
2018-12-31T14:23:01.129Z,0.90
2018-12-31T14:25:55.587Z,1.00
2018-12-31T14:28:42.734Z,1.10
2018-12-31T14:31:37.360Z,1.10
2018-12-31T14:34:24.800Z,0.70
2018-12-31T14:37:19.582Z,1.20
2018-12-31T14:40:07.765Z,1.00
2018-12-31T14:43:02.103Z,1.00
2018-12-31T14:45:49.467Z,1.20
2018-12-31T14:48:43.881Z,1.03
2018-12-31T14:51:31.084Z,0.63
2018-12-31T14:54:25.267Z,0.57
2018-12-31T14:57:12.477Z,0.80
2018-12-31T15:00:12.833Z,0.90
2018-12-31T15:03:00.343Z,0.70
2018-12-31T15:05:54.797Z,1.03
2018-12-31T15:08:41.883Z,1.07
2018-12-31T15:11:36.791Z,1.00
2018-12-31T15:14:25.685Z,0.83
2018-12-31T15:17:20.421Z,1.20
2018-12-31T15:20:08.854Z,1.00
2018-12-31T15:23:02.785Z,1.20
2018-12-31T15:26:00.857Z,1.10
2018-12-31T15:28:55.214Z,1.10
2018-12-31T15:31:42.573Z,0.90
2018-12-31T15:34:36.583Z,0.97
2018-12-31T15:37:23.948Z,1.20
2018-12-31T15:40:17.858Z,1.00
2018-12-31T15:43:04.848Z,1.30
2018-12-31T15:46:00.289Z,1.00
2018-12-31T15:48:47.305Z,0.80
2018-12-31T15:51:41.601Z,0.93
2018-12-31T15:54:29.072Z,1.13
2018-12-31T15:57:23.373Z,0.97
2018-12-31T16:00:17.356Z,1.20
2018-12-31T16:03:13.848Z,1.20
2018-12-31T16:06:03.852Z,0.80
2018-12-31T16:08:58.096Z,1.00
2018-12-31T16:11:45.484Z,1.10
2018-12-31T16:14:39.698Z,1.03
2018-12-31T16:17:27.140Z,1.10
2018-12-31T16:20:21.616Z,1.20
2018-12-31T16:23:09.093Z,0.90
2018-12-31T16:26:03.398Z,1.13
2018-12-31T16:28:58.212Z,1.20
2018-12-31T16:31:53.083Z,1.20
2018-12-31T16:34:40.103Z,1.30
2018-12-31T16:37:33.845Z,1.33
2018-12-31T16:40:21.319Z,1.40
2018-12-31T16:43:16.194Z,1.30
2018-12-31T16:46:03.529Z,1.40
2018-12-31T16:48:58.340Z,1.60
2018-12-31T16:51:45.795Z,1.47
2018-12-31T16:54:40.067Z,1.30
2018-12-31T16:57:27.629Z,1.13
2018-12-31T17:00:28.481Z,1.70
2018-12-31T17:03:22.586Z,1.27
2018-12-31T17:06:17.009Z,1.27
2018-12-31T17:09:06.205Z,1.70
2018-12-31T17:12:00.847Z,1.50
2018-12-31T17:14:49.021Z,1.50
2018-12-31T17:17:43.391Z,1.63
2018-12-31T17:20:30.513Z,1.50
2018-12-31T17:23:26.180Z,1.33
2018-12-31T17:26:13.289Z,1.37
2018-12-31T17:29:07.131Z,1.50
2018-12-31T17:32:00.835Z,1.67
2018-12-31T17:34:55.595Z,1.77
2018-12-31T17:37:42.620Z,1.30
2018-12-31T17:40:36.730Z,1.53
2018-12-31T17:43:24.101Z,1.37
2018-12-31T17:46:18.272Z,1.50
2018-12-31T17:49:05.412Z,1.50
2018-12-31T17:51:59.958Z,1.53
2018-12-31T17:54:47.551Z,1.60
2018-12-31T17:57:42.227Z,1.90
2018-12-31T18:00:37.104Z,1.80
2018-12-31T18:03:38.184Z,1.73
2018-12-31T18:06:25.620Z,1.90
2018-12-31T18:09:20.356Z,2.10
2018-12-31T18:12:07.459Z,1.97
2018-12-31T18:15:01.663Z,1.80
2018-12-31T18:17:49.018Z,1.77
2018-12-31T18:20:44.277Z,1.80
2018-12-31T18:23:34.777Z,1.90
2018-12-31T18:26:28.280Z,1.90
2018-12-31T18:29:15.247Z,1.80
2018-12-31T18:32:09.824Z,1.80
2018-12-31T18:35:04.517Z,2.03
2018-12-31T18:37:58.315Z,2.27
2018-12-31T18:40:45.740Z,2.00
2018-12-31T18:43:39.614Z,2.10
2018-12-31T18:46:27.085Z,2.10
2018-12-31T18:49:20.754Z,2.10
2018-12-31T18:52:07.891Z,2.17
2018-12-31T18:55:02.535Z,2.00
2018-12-31T18:57:51.659Z,2.20
2018-12-31T19:00:45.561Z,2.30
2018-12-31T19:03:39.335Z,2.20
2018-12-31T19:06:36.665Z,2.50
2018-12-31T19:09:24.435Z,2.00
2018-12-31T19:12:18.455Z,2.40
2018-12-31T19:15:06.787Z,2.10
2018-12-31T19:18:01.282Z,2.03
2018-12-31T19:20:48.702Z,2.37
2018-12-31T19:23:43.406Z,2.20
2018-12-31T19:26:30.933Z,2.47
2018-12-31T19:29:25.445Z,2.50
2018-12-31T19:32:12.653Z,2.60
2018-12-31T19:35:06.970Z,2.47
2018-12-31T19:38:01.577Z,2.40
2018-12-31T19:40:56.001Z,2.50
2018-12-31T19:43:43.209Z,2.43
2018-12-31T19:46:37.972Z,2.70
2018-12-31T19:49:25.046Z,2.40
2018-12-31T19:52:19.922Z,2.47
2018-12-31T19:55:07.375Z,3.00
2018-12-31T19:58:01.918Z,2.77
2018-12-31T20:00:49.024Z,2.63
2018-12-31T20:03:49.733Z,2.83
2018-12-31T20:06:44.151Z,2.87
2018-12-31T20:09:38.613Z,2.87
2018-12-31T20:12:25.855Z,2.70
2018-12-31T20:15:20.809Z,2.90
2018-12-31T20:18:07.984Z,3.03
2018-12-31T20:21:02.054Z,2.57
2018-12-31T20:23:49.549Z,2.57
2018-12-31T20:26:44.370Z,2.93
2018-12-31T20:29:31.704Z,2.97
2018-12-31T20:32:26.260Z,2.80
2018-12-31T20:35:31.290Z,2.83
2018-12-31T20:38:32.674Z,2.73
2018-12-31T20:41:19.665Z,3.13
2018-12-31T20:44:14.398Z,2.73
2018-12-31T20:47:01.792Z,3.20
2018-12-31T20:49:55.778Z,3.00
2018-12-31T20:52:43.190Z,2.90
2018-12-31T20:55:37.509Z,2.83
2018-12-31T20:58:25.021Z,2.70
2018-12-31T21:01:21.232Z,2.97
2018-12-31T21:04:08.491Z,3.00
2018-12-31T21:07:09.355Z,3.40
2018-12-31T21:09:56.733Z,3.10
2018-12-31T21:12:54.012Z,3.30
2018-12-31T21:15:41.237Z,3.27
2018-12-31T21:18:35.187Z,3.13
2018-12-31T21:21:22.669Z,2.93
2018-12-31T21:24:17.124Z,3.20
2018-12-31T21:27:04.325Z,3.00
2018-12-31T21:29:58.892Z,3.30
2018-12-31T21:32:46.098Z,2.93
2018-12-31T21:35:41.043Z,3.17
2018-12-31T21:38:28.071Z,3.03
2018-12-31T21:41:29.506Z,3.17
2018-12-31T21:44:16.658Z,3.50
2018-12-31T21:47:11.032Z,3.80
2018-12-31T21:50:00.090Z,3.60
2018-12-31T21:52:54.476Z,3.37
2018-12-31T21:55:44.695Z,3.60
2018-12-31T21:58:39.209Z,3.50
2018-12-31T22:01:26.444Z,3.20
2018-12-31T22:04:20.969Z,3.30
2018-12-31T22:07:14.832Z,3.33
2018-12-31T22:10:09.433Z,3.27
2018-12-31T22:12:56.845Z,3.57
2018-12-31T22:15:50.659Z,3.73
2018-12-31T22:18:37.917Z,3.80
2018-12-31T22:21:32.713Z,3.70
2018-12-31T22:24:19.770Z,3.47
2018-12-31T22:27:14.601Z,3.70
2018-12-31T22:30:01.843Z,3.37
2018-12-31T22:32:56.156Z,3.30
2018-12-31T22:35:43.521Z,3.40
2018-12-31T22:38:37.697Z,3.80
2018-12-31T22:41:25.110Z,3.30
2018-12-31T22:44:26.338Z,3.53
2018-12-31T22:47:13.768Z,3.70
2018-12-31T22:50:07.890Z,3.60
2018-12-31T22:52:56.799Z,3.50
2018-12-31T22:55:50.503Z,3.80
2018-12-31T22:58:37.807Z,4.00
2018-12-31T23:01:32.133Z,4.00
2018-12-31T23:04:19.575Z,4.33
2018-12-31T23:07:20.780Z,3.90
2018-12-31T23:10:15.081Z,4.50
2018-12-31T23:13:09.783Z,4.30
2018-12-31T23:15:58.500Z,4.73
2018-12-31T23:18:52.986Z,4.47
2018-12-31T23:21:40.364Z,5.20
2018-12-31T23:24:34.913Z,5.10
2018-12-31T23:27:24.820Z,6.57
2018-12-31T23:30:19.435Z,6.37
2018-12-31T23:33:06.877Z,7.20
2018-12-31T23:36:01.391Z,7.50
2018-12-31T23:38:50.434Z,8.20
2018-12-31T23:41:46.463Z,8.03
2018-12-31T23:44:33.999Z,8.73
2018-12-31T23:47:35.981Z,8.60
2018-12-31T23:50:48.838Z,9.20
2018-12-31T23:53:21.914Z,9.53
2018-12-31T23:56:09.709Z,9.80
2018-12-31T23:59:04.092Z,10.13
